sensor_id;sensor_type;location;lat;lon;timestamp;temperature;humidity
32698;DHT22;19087;51.062;3.754;2024-01-07T00:01:24;6.00;99.90
32698;DHT22;19087;51.062;3.754;2024-01-07T00:03:51;6.20;99.90
32698;DHT22;19087;51.062;3.754;2024-01-07T00:06:17;6.10;99.90
32698;DHT22;19087;51.062;3.754;2024-01-07T00:08:43;5.90;99.90
32698;DHT22;19087;51.062;3.754;2024-01-07T00:11:09;5.90;99.90
32698;DHT22;19087;51.062;3.754;2024-01-07T00:13:35;5.80;99.90
32698;DHT22;19087;51.062;3.754;2024-01-07T00:16:01;5.70;99.90
32698;DHT22;19087;51.062;3.754;2024-01-07T00:18:26;5.60;99.90
32698;DHT22;19087;51.062;3.754;2024-01-07T00:20:53;5.60;99.90
32698;DHT22;19087;51.062;3.754;2024-01-07T00:23:19;5.70;99.90
32698;DHT22;19087;51.062;3.754;2024-01-07T00:25:47;5.60;99.90
32698;DHT22;19087;51.062;3.754;2024-01-07T00:28:12;5.50;99.90
32698;DHT22;19087;51.062;3.754;2024-01-07T00:30:38;5.50;99.90
32698;DHT22;19087;51.062;3.754;2024-01-07T00:33:04;5.40;99.90
32698;DHT22;19087;51.062;3.754;2024-01-07T00:35:30;5.20;99.90
32698;DHT22;19087;51.062;3.754;2024-01-07T00:37:55;5.00;99.90
32698;DHT22;19087;51.062;3.754;2024-01-07T00:40:23;5.10;99.90
32698;DHT22;19087;51.062;3.754;2024-01-07T00:42:48;5.10;99.90
32698;DHT22;19087;51.062;3.754;2024-01-07T00:45:14;5.10;99.90
32698;DHT22;19087;51.062;3.754;2024-01-07T00:47:40;5.20;99.90
32698;DHT22;19087;51.062;3.754;2024-01-07T00:50:06;5.20;99.90
32698;DHT22;19087;51.062;3.754;2024-01-07T00:52:32;5.10;99.90
32698;DHT22;19087;51.062;3.754;2024-01-07T00:54:58;5.20;99.90
32698;DHT22;19087;51.062;3.754;2024-01-07T00:57:24;5.30;99.90
32698;DHT22;19087;51.062;3.754;2024-01-07T00:59:49;5.30;99.90
32698;DHT22;19087;51.062;3.754;2024-01-07T01:02:16;5.30;99.90
32698;DHT22;19087;51.062;3.754;2024-01-07T01:04:41;5.10;99.90
32698;DHT22;19087;51.062;3.754;2024-01-07T01:07:07;5.20;99.90
32698;DHT22;19087;51.062;3.754;2024-01-07T01:09:34;5.20;99.90
32698;DHT22;19087;51.062;3.754;2024-01-07T01:11:59;5.20;99.90
32698;DHT22;19087;51.062;3.754;2024-01-07T01:14:25;5.10;99.90
32698;DHT22;19087;51.062;3.754;2024-01-07T01:16:51;5.10;99.90
32698;DHT22;19087;51.062;3.754;2024-01-07T01:19:20;5.20;99.90
32698;DHT22;19087;51.062;3.754;2024-01-07T01:21:46;5.10;99.90
32698;DHT22;19087;51.062;3.754;2024-01-07T01:24:11;5.30;99.90
32698;DHT22;19087;51.062;3.754;2024-01-07T01:26:38;5.40;99.90
32698;DHT22;19087;51.062;3.754;2024-01-07T01:29:06;5.50;99.90
32698;DHT22;19087;51.062;3.754;2024-01-07T01:31:34;5.50;99.90
32698;DHT22;19087;51.062;3.754;2024-01-07T01:34:00;5.60;99.90
32698;DHT22;19087;51.062;3.754;2024-01-07T01:36:27;5.60;99.90
32698;DHT22;19087;51.062;3.754;2024-01-07T01:38:53;5.80;99.90
32698;DHT22;19087;51.062;3.754;2024-01-07T01:41:20;5.80;99.90
32698;DHT22;19087;51.062;3.754;2024-01-07T01:43:45;5.80;99.90
32698;DHT22;19087;51.062;3.754;2024-01-07T01:46:12;5.90;99.90
32698;DHT22;19087;51.062;3.754;2024-01-07T01:48:40;6.00;99.90
32698;DHT22;19087;51.062;3.754;2024-01-07T01:51:07;5.80;99.90
32698;DHT22;19087;51.062;3.754;2024-01-07T01:53:33;5.70;99.90
32698;DHT22;19087;51.062;3.754;2024-01-07T01:56:01;5.80;99.90
32698;DHT22;19087;51.062;3.754;2024-01-07T01:58:29;5.70;99.90
32698;DHT22;19087;51.062;3.754;2024-01-07T02:00:56;5.70;99.90
32698;DHT22;19087;51.062;3.754;2024-01-07T02:03:22;5.70;99.90
32698;DHT22;19087;51.062;3.754;2024-01-07T02:05:48;5.40;99.90
32698;DHT22;19087;51.062;3.754;2024-01-07T02:08:17;5.50;99.90
32698;DHT22;19087;51.062;3.754;2024-01-07T02:10:43;5.60;99.90
32698;DHT22;19087;51.062;3.754;2024-01-07T02:13:10;5.60;99.90
32698;DHT22;19087;51.062;3.754;2024-01-07T02:15:36;5.50;99.90
32698;DHT22;19087;51.062;3.754;2024-01-07T02:18:02;5.50;99.90
32698;DHT22;19087;51.062;3.754;2024-01-07T02:20:28;5.40;99.90
32698;DHT22;19087;51.062;3.754;2024-01-07T02:22:53;5.40;99.90
32698;DHT22;19087;51.062;3.754;2024-01-07T02:25:20;5.40;99.90
32698;DHT22;19087;51.062;3.754;2024-01-07T02:27:46;5.40;99.90
32698;DHT22;19087;51.062;3.754;2024-01-07T02:30:12;5.20;99.90
32698;DHT22;19087;51.062;3.754;2024-01-07T02:32:37;5.20;99.90
32698;DHT22;19087;51.062;3.754;2024-01-07T02:35:04;5.20;99.90
32698;DHT22;19087;51.062;3.754;2024-01-07T02:37:29;5.20;99.90
32698;DHT22;19087;51.062;3.754;2024-01-07T02:39:56;5.10;99.90
32698;DHT22;19087;51.062;3.754;2024-01-07T02:42:22;5.00;99.90
32698;DHT22;19087;51.062;3.754;2024-01-07T02:44:48;4.90;99.90
32698;DHT22;19087;51.062;3.754;2024-01-07T02:47:14;5.00;99.90
32698;DHT22;19087;51.062;3.754;2024-01-07T02:49:40;4.90;99.90
32698;DHT22;19087;51.062;3.754;2024-01-07T02:52:06;4.90;99.90
32698;DHT22;19087;51.062;3.754;2024-01-07T02:54:32;5.00;99.90
32698;DHT22;19087;51.062;3.754;2024-01-07T02:56:58;5.00;99.90
32698;DHT22;19087;51.062;3.754;2024-01-07T02:59:30;4.90;99.90
32698;DHT22;19087;51.062;3.754;2024-01-07T03:01:55;4.90;99.90
32698;DHT22;19087;51.062;3.754;2024-01-07T03:04:21;5.00;99.90
32698;DHT22;19087;51.062;3.754;2024-01-07T03:06:47;5.00;99.90
32698;DHT22;19087;51.062;3.754;2024-01-07T03:09:13;5.00;99.90
32698;DHT22;19087;51.062;3.754;2024-01-07T03:11:39;5.10;99.90
32698;DHT22;19087;51.062;3.754;2024-01-07T03:14:06;4.90;99.90
32698;DHT22;19087;51.062;3.754;2024-01-07T03:16:32;4.90;99.90
32698;DHT22;19087;51.062;3.754;2024-01-07T03:18:58;4.70;99.90
32698;DHT22;19087;51.062;3.754;2024-01-07T03:21:24;4.70;99.90
32698;DHT22;19087;51.062;3.754;2024-01-07T03:23:51;4.70;99.90
32698;DHT22;19087;51.062;3.754;2024-01-07T03:26:18;4.70;99.90
32698;DHT22;19087;51.062;3.754;2024-01-07T03:28:45;4.80;99.90
32698;DHT22;19087;51.062;3.754;2024-01-07T03:31:19;4.70;99.90
32698;DHT22;19087;51.062;3.754;2024-01-07T03:33:45;4.80;99.90
32698;DHT22;19087;51.062;3.754;2024-01-07T03:36:13;4.80;99.90
32698;DHT22;19087;51.062;3.754;2024-01-07T03:38:40;4.80;99.90
32698;DHT22;19087;51.062;3.754;2024-01-07T03:41:07;4.80;99.90
32698;DHT22;19087;51.062;3.754;2024-01-07T03:43:33;4.80;99.90
32698;DHT22;19087;51.062;3.754;2024-01-07T03:45:59;4.70;99.90
32698;DHT22;19087;51.062;3.754;2024-01-07T03:48:25;4.70;99.90
32698;DHT22;19087;51.062;3.754;2024-01-07T03:50:51;4.70;99.90
32698;DHT22;19087;51.062;3.754;2024-01-07T03:53:18;4.80;99.90
32698;DHT22;19087;51.062;3.754;2024-01-07T03:55:45;4.70;99.90
32698;DHT22;19087;51.062;3.754;2024-01-07T03:58:12;4.70;99.90
32698;DHT22;19087;51.062;3.754;2024-01-07T04:00:38;4.80;99.90
32698;DHT22;19087;51.062;3.754;2024-01-07T04:03:04;5.00;99.90
32698;DHT22;19087;51.062;3.754;2024-01-07T04:05:33;5.00;99.90
32698;DHT22;19087;51.062;3.754;2024-01-07T04:08:02;5.00;99.90
32698;DHT22;19087;51.062;3.754;2024-01-07T04:10:28;5.00;99.90
32698;DHT22;19087;51.062;3.754;2024-01-07T04:12:54;4.90;99.90
32698;DHT22;19087;51.062;3.754;2024-01-07T04:15:20;4.90;99.90
32698;DHT22;19087;51.062;3.754;2024-01-07T04:17:47;5.00;99.90
32698;DHT22;19087;51.062;3.754;2024-01-07T04:20:14;5.00;99.90
32698;DHT22;19087;51.062;3.754;2024-01-07T04:22:41;5.00;99.90
32698;DHT22;19087;51.062;3.754;2024-01-07T04:25:07;4.90;99.90
32698;DHT22;19087;51.062;3.754;2024-01-07T04:27:37;4.80;99.90
32698;DHT22;19087;51.062;3.754;2024-01-07T04:30:04;4.90;99.90
32698;DHT22;19087;51.062;3.754;2024-01-07T04:32:30;4.70;99.90
32698;DHT22;19087;51.062;3.754;2024-01-07T04:34:56;4.80;99.90
32698;DHT22;19087;51.062;3.754;2024-01-07T04:37:23;4.80;99.90
32698;DHT22;19087;51.062;3.754;2024-01-07T04:39:49;4.80;99.90
32698;DHT22;19087;51.062;3.754;2024-01-07T04:42:17;4.70;99.90
32698;DHT22;19087;51.062;3.754;2024-01-07T04:44:43;4.70;99.90
32698;DHT22;19087;51.062;3.754;2024-01-07T04:47:30;4.60;99.90
32698;DHT22;19087;51.062;3.754;2024-01-07T04:49:57;4.50;99.90
32698;DHT22;19087;51.062;3.754;2024-01-07T04:52:23;4.60;99.90
32698;DHT22;19087;51.062;3.754;2024-01-07T04:54:53;4.60;99.90
32698;DHT22;19087;51.062;3.754;2024-01-07T04:57:20;4.60;99.90
32698;DHT22;19087;51.062;3.754;2024-01-07T04:59:48;4.60;99.90
32698;DHT22;19087;51.062;3.754;2024-01-07T05:02:14;4.60;99.90
32698;DHT22;19087;51.062;3.754;2024-01-07T05:04:41;4.60;99.90
32698;DHT22;19087;51.062;3.754;2024-01-07T05:07:07;4.50;99.90
32698;DHT22;19087;51.062;3.754;2024-01-07T05:09:35;4.40;99.90
32698;DHT22;19087;51.062;3.754;2024-01-07T05:12:01;4.50;99.90
32698;DHT22;19087;51.062;3.754;2024-01-07T05:14:27;4.40;99.90
32698;DHT22;19087;51.062;3.754;2024-01-07T05:16:54;4.50;99.90
32698;DHT22;19087;51.062;3.754;2024-01-07T05:19:20;4.50;99.90
32698;DHT22;19087;51.062;3.754;2024-01-07T05:21:46;4.60;99.90
32698;DHT22;19087;51.062;3.754;2024-01-07T05:24:13;4.50;99.90
32698;DHT22;19087;51.062;3.754;2024-01-07T05:26:40;4.50;99.90
32698;DHT22;19087;51.062;3.754;2024-01-07T05:29:06;4.40;99.90
32698;DHT22;19087;51.062;3.754;2024-01-07T05:31:32;4.40;99.90
32698;DHT22;19087;51.062;3.754;2024-01-07T05:34:00;4.40;99.90
32698;DHT22;19087;51.062;3.754;2024-01-07T05:36:26;4.50;99.90
32698;DHT22;19087;51.062;3.754;2024-01-07T05:38:53;4.60;99.90
32698;DHT22;19087;51.062;3.754;2024-01-07T05:41:19;4.50;99.90
32698;DHT22;19087;51.062;3.754;2024-01-07T05:43:45;4.50;99.90
32698;DHT22;19087;51.062;3.754;2024-01-07T05:46:11;4.50;99.90
32698;DHT22;19087;51.062;3.754;2024-01-07T05:48:48;4.50;99.90
32698;DHT22;19087;51.062;3.754;2024-01-07T05:51:14;4.40;99.90
32698;DHT22;19087;51.062;3.754;2024-01-07T05:53:40;4.40;99.90
32698;DHT22;19087;51.062;3.754;2024-01-07T05:56:07;4.20;99.90
32698;DHT22;19087;51.062;3.754;2024-01-07T05:58:33;4.20;99.90
32698;DHT22;19087;51.062;3.754;2024-01-07T06:01:00;4.20;99.90
32698;DHT22;19087;51.062;3.754;2024-01-07T06:03:27;4.30;99.90
32698;DHT22;19087;51.062;3.754;2024-01-07T06:05:53;4.30;99.90
32698;DHT22;19087;51.062;3.754;2024-01-07T06:08:20;4.40;99.90
32698;DHT22;19087;51.062;3.754;2024-01-07T06:10:51;4.30;99.90
32698;DHT22;19087;51.062;3.754;2024-01-07T06:13:17;4.30;99.90
32698;DHT22;19087;51.062;3.754;2024-01-07T06:15:43;4.30;99.90
32698;DHT22;19087;51.062;3.754;2024-01-07T06:18:12;4.50;99.90
32698;DHT22;19087;51.062;3.754;2024-01-07T06:20:38;4.30;99.90
32698;DHT22;19087;51.062;3.754;2024-01-07T06:23:05;4.40;99.90
32698;DHT22;19087;51.062;3.754;2024-01-07T06:25:31;4.30;99.90
32698;DHT22;19087;51.062;3.754;2024-01-07T06:27:57;4.20;99.90
32698;DHT22;19087;51.062;3.754;2024-01-07T06:30:23;4.20;99.90
32698;DHT22;19087;51.062;3.754;2024-01-07T06:32:48;4.30;99.90
32698;DHT22;19087;51.062;3.754;2024-01-07T06:35:14;4.30;99.90
32698;DHT22;19087;51.062;3.754;2024-01-07T06:37:43;4.30;99.90
32698;DHT22;19087;51.062;3.754;2024-01-07T06:40:09;4.20;99.90
32698;DHT22;19087;51.062;3.754;2024-01-07T06:42:37;4.20;99.90
32698;DHT22;19087;51.062;3.754;2024-01-07T06:45:03;4.40;99.90
32698;DHT22;19087;51.062;3.754;2024-01-07T06:47:29;4.40;99.90
32698;DHT22;19087;51.062;3.754;2024-01-07T06:49:55;4.40;99.90
32698;DHT22;19087;51.062;3.754;2024-01-07T06:52:20;4.30;99.90
32698;DHT22;19087;51.062;3.754;2024-01-07T06:54:48;4.30;99.90
32698;DHT22;19087;51.062;3.754;2024-01-07T06:57:14;4.30;99.90
32698;DHT22;19087;51.062;3.754;2024-01-07T06:59:40;4.40;99.90
32698;DHT22;19087;51.062;3.754;2024-01-07T07:02:10;4.50;99.90
32698;DHT22;19087;51.062;3.754;2024-01-07T07:04:38;4.40;99.90
32698;DHT22;19087;51.062;3.754;2024-01-07T07:07:04;4.50;99.90
32698;DHT22;19087;51.062;3.754;2024-01-07T07:09:34;4.50;99.90
32698;DHT22;19087;51.062;3.754;2024-01-07T07:12:00;4.50;99.90
32698;DHT22;19087;51.062;3.754;2024-01-07T07:14:27;4.50;99.90
32698;DHT22;19087;51.062;3.754;2024-01-07T07:16:54;4.40;99.90
32698;DHT22;19087;51.062;3.754;2024-01-07T07:19:21;4.30;99.90
32698;DHT22;19087;51.062;3.754;2024-01-07T07:21:47;4.20;99.90
32698;DHT22;19087;51.062;3.754;2024-01-07T07:24:13;4.20;99.90
32698;DHT22;19087;51.062;3.754;2024-01-07T07:26:40;4.20;99.90
32698;DHT22;19087;51.062;3.754;2024-01-07T07:29:08;4.30;99.90
32698;DHT22;19087;51.062;3.754;2024-01-07T07:31:37;4.20;99.90
32698;DHT22;19087;51.062;3.754;2024-01-07T07:34:04;4.30;99.90
32698;DHT22;19087;51.062;3.754;2024-01-07T07:36:30;4.20;99.90
32698;DHT22;19087;51.062;3.754;2024-01-07T07:38:59;4.20;99.90
32698;DHT22;19087;51.062;3.754;2024-01-07T07:41:25;4.30;99.90
32698;DHT22;19087;51.062;3.754;2024-01-07T07:43:50;4.30;99.90
32698;DHT22;19087;51.062;3.754;2024-01-07T07:46:17;4.10;99.90
32698;DHT22;19087;51.062;3.754;2024-01-07T07:48:43;4.10;99.90
32698;DHT22;19087;51.062;3.754;2024-01-07T07:51:09;4.20;99.90
32698;DHT22;19087;51.062;3.754;2024-01-07T07:53:38;4.20;99.90
32698;DHT22;19087;51.062;3.754;2024-01-07T07:56:06;4.20;99.90
32698;DHT22;19087;51.062;3.754;2024-01-07T07:58:32;4.20;99.90
32698;DHT22;19087;51.062;3.754;2024-01-07T08:00:57;4.10;99.90
32698;DHT22;19087;51.062;3.754;2024-01-07T08:03:23;4.10;99.90
32698;DHT22;19087;51.062;3.754;2024-01-07T08:05:51;4.00;99.90
32698;DHT22;19087;51.062;3.754;2024-01-07T08:08:19;4.00;99.90
32698;DHT22;19087;51.062;3.754;2024-01-07T08:10:44;4.10;99.90
32698;DHT22;19087;51.062;3.754;2024-01-07T08:13:11;4.10;99.90
32698;DHT22;19087;51.062;3.754;2024-01-07T08:15:37;4.20;99.90
32698;DHT22;19087;51.062;3.754;2024-01-07T08:18:04;4.30;99.90
32698;DHT22;19087;51.062;3.754;2024-01-07T08:20:31;4.30;99.90
32698;DHT22;19087;51.062;3.754;2024-01-07T08:22:58;4.40;99.90
32698;DHT22;19087;51.062;3.754;2024-01-07T08:25:24;4.40;99.90
32698;DHT22;19087;51.062;3.754;2024-01-07T08:27:51;4.30;99.90
32698;DHT22;19087;51.062;3.754;2024-01-07T08:30:16;4.30;99.90
32698;DHT22;19087;51.062;3.754;2024-01-07T08:32:42;4.20;99.90
32698;DHT22;19087;51.062;3.754;2024-01-07T08:35:08;4.10;99.90
32698;DHT22;19087;51.062;3.754;2024-01-07T08:37:36;4.10;99.90
32698;DHT22;19087;51.062;3.754;2024-01-07T08:40:02;4.10;99.90
32698;DHT22;19087;51.062;3.754;2024-01-07T08:42:36;4.20;99.90
32698;DHT22;19087;51.062;3.754;2024-01-07T08:45:03;4.20;99.90
32698;DHT22;19087;51.062;3.754;2024-01-07T08:47:30;4.20;99.90
32698;DHT22;19087;51.062;3.754;2024-01-07T08:49:57;4.30;99.90
32698;DHT22;19087;51.062;3.754;2024-01-07T08:52:24;4.30;99.90
32698;DHT22;19087;51.062;3.754;2024-01-07T08:54:52;4.30;99.90
32698;DHT22;19087;51.062;3.754;2024-01-07T08:57:33;4.30;99.90
32698;DHT22;19087;51.062;3.754;2024-01-07T09:00:00;4.40;99.90
32698;DHT22;19087;51.062;3.754;2024-01-07T09:02:28;4.50;99.90
32698;DHT22;19087;51.062;3.754;2024-01-07T09:04:54;4.60;99.90
32698;DHT22;19087;51.062;3.754;2024-01-07T09:07:20;4.60;99.90
32698;DHT22;19087;51.062;3.754;2024-01-07T09:09:46;4.70;99.90
32698;DHT22;19087;51.062;3.754;2024-01-07T09:12:14;4.70;99.90
32698;DHT22;19087;51.062;3.754;2024-01-07T09:14:41;4.60;99.90
32698;DHT22;19087;51.062;3.754;2024-01-07T09:17:10;4.60;99.90
32698;DHT22;19087;51.062;3.754;2024-01-07T09:19:36;4.50;99.90
32698;DHT22;19087;51.062;3.754;2024-01-07T09:22:02;4.40;99.90
32698;DHT22;19087;51.062;3.754;2024-01-07T09:24:28;4.50;99.90
32698;DHT22;19087;51.062;3.754;2024-01-07T09:26:55;4.50;99.90
32698;DHT22;19087;51.062;3.754;2024-01-07T09:29:22;4.40;99.90
32698;DHT22;19087;51.062;3.754;2024-01-07T09:31:48;4.60;99.90
32698;DHT22;19087;51.062;3.754;2024-01-07T09:34:14;4.60;99.90
32698;DHT22;19087;51.062;3.754;2024-01-07T09:36:40;4.50;99.90
32698;DHT22;19087;51.062;3.754;2024-01-07T09:39:06;4.50;99.90
32698;DHT22;19087;51.062;3.754;2024-01-07T09:41:32;4.50;99.90
32698;DHT22;19087;51.062;3.754;2024-01-07T09:43:59;4.50;99.90
32698;DHT22;19087;51.062;3.754;2024-01-07T09:46:26;4.40;99.90
32698;DHT22;19087;51.062;3.754;2024-01-07T09:49:03;4.30;99.90
32698;DHT22;19087;51.062;3.754;2024-01-07T09:51:29;4.30;99.90
32698;DHT22;19087;51.062;3.754;2024-01-07T09:53:58;4.30;99.90
32698;DHT22;19087;51.062;3.754;2024-01-07T09:56:33;4.30;99.90
32698;DHT22;19087;51.062;3.754;2024-01-07T09:59:00;4.30;99.90
32698;DHT22;19087;51.062;3.754;2024-01-07T10:01:26;4.40;99.90
32698;DHT22;19087;51.062;3.754;2024-01-07T10:03:53;4.40;99.90
32698;DHT22;19087;51.062;3.754;2024-01-07T10:06:19;4.30;99.90
32698;DHT22;19087;51.062;3.754;2024-01-07T10:08:46;4.30;99.90
32698;DHT22;19087;51.062;3.754;2024-01-07T10:11:21;4.30;99.90
32698;DHT22;19087;51.062;3.754;2024-01-07T10:13:51;4.20;99.90
32698;DHT22;19087;51.062;3.754;2024-01-07T10:16:17;4.20;99.90
32698;DHT22;19087;51.062;3.754;2024-01-07T10:18:43;4.40;99.90
32698;DHT22;19087;51.062;3.754;2024-01-07T10:21:09;4.30;99.90
32698;DHT22;19087;51.062;3.754;2024-01-07T10:23:35;4.40;99.90
32698;DHT22;19087;51.062;3.754;2024-01-07T10:26:01;4.40;99.90
32698;DHT22;19087;51.062;3.754;2024-01-07T10:28:30;4.40;99.90
32698;DHT22;19087;51.062;3.754;2024-01-07T10:30:57;4.40;99.90
32698;DHT22;19087;51.062;3.754;2024-01-07T10:33:23;4.50;99.90
32698;DHT22;19087;51.062;3.754;2024-01-07T10:35:56;4.40;99.90
32698;DHT22;19087;51.062;3.754;2024-01-07T10:38:23;4.30;99.90
32698;DHT22;19087;51.062;3.754;2024-01-07T10:40:52;4.30;99.90
32698;DHT22;19087;51.062;3.754;2024-01-07T10:43:18;4.20;99.90
32698;DHT22;19087;51.062;3.754;2024-01-07T10:45:47;4.30;99.90
32698;DHT22;19087;51.062;3.754;2024-01-07T10:48:18;4.30;99.90
32698;DHT22;19087;51.062;3.754;2024-01-07T10:50:50;4.40;99.90
32698;DHT22;19087;51.062;3.754;2024-01-07T10:53:25;4.40;99.90
32698;DHT22;19087;51.062;3.754;2024-01-07T10:56:05;4.40;99.90
32698;DHT22;19087;51.062;3.754;2024-01-07T10:58:33;4.30;99.90
32698;DHT22;19087;51.062;3.754;2024-01-07T11:01:04;4.50;99.90
32698;DHT22;19087;51.062;3.754;2024-01-07T11:03:40;4.50;99.90
32698;DHT22;19087;51.062;3.754;2024-01-07T11:06:43;4.60;99.90
32698;DHT22;19087;51.062;3.754;2024-01-07T11:09:36;4.50;99.90
32698;DHT22;19087;51.062;3.754;2024-01-07T11:12:05;4.40;99.90
32698;DHT22;19087;51.062;3.754;2024-01-07T11:14:39;4.30;99.90
32698;DHT22;19087;51.062;3.754;2024-01-07T11:17:07;4.30;99.90
32698;DHT22;19087;51.062;3.754;2024-01-07T11:19:38;4.40;99.90
32698;DHT22;19087;51.062;3.754;2024-01-07T11:22:29;4.30;99.90
32698;DHT22;19087;51.062;3.754;2024-01-07T11:27:26;4.60;99.90
32698;DHT22;19087;51.062;3.754;2024-01-07T11:29:56;4.60;99.90
32698;DHT22;19087;51.062;3.754;2024-01-07T11:32:23;4.50;99.90
32698;DHT22;19087;51.062;3.754;2024-01-07T11:34:50;4.50;99.90
32698;DHT22;19087;51.062;3.754;2024-01-07T11:37:19;4.40;99.90
32698;DHT22;19087;51.062;3.754;2024-01-07T11:39:55;4.40;99.90
32698;DHT22;19087;51.062;3.754;2024-01-07T11:42:22;4.40;99.90
32698;DHT22;19087;51.062;3.754;2024-01-07T11:44:55;4.50;99.90
32698;DHT22;19087;51.062;3.754;2024-01-07T11:47:23;4.40;99.90
32698;DHT22;19087;51.062;3.754;2024-01-07T11:49:54;4.50;99.90
32698;DHT22;19087;51.062;3.754;2024-01-07T11:52:20;4.60;99.90
32698;DHT22;19087;51.062;3.754;2024-01-07T11:54:49;4.70;99.90
32698;DHT22;19087;51.062;3.754;2024-01-07T11:57:15;4.50;99.90
32698;DHT22;19087;51.062;3.754;2024-01-07T11:59:43;4.50;99.90
32698;DHT22;19087;51.062;3.754;2024-01-07T12:02:13;4.50;99.90
32698;DHT22;19087;51.062;3.754;2024-01-07T12:04:40;4.60;99.90
32698;DHT22;19087;51.062;3.754;2024-01-07T12:07:07;4.80;99.90
32698;DHT22;19087;51.062;3.754;2024-01-07T12:09:37;4.80;99.90
32698;DHT22;19087;51.062;3.754;2024-01-07T12:12:04;4.50;99.90
32698;DHT22;19087;51.062;3.754;2024-01-07T12:14:30;4.60;99.90
32698;DHT22;19087;51.062;3.754;2024-01-07T12:16:59;4.50;99.90
32698;DHT22;19087;51.062;3.754;2024-01-07T12:19:28;4.40;99.90
32698;DHT22;19087;51.062;3.754;2024-01-07T12:22:06;4.40;99.90
32698;DHT22;19087;51.062;3.754;2024-01-07T12:24:32;4.20;99.90
32698;DHT22;19087;51.062;3.754;2024-01-07T12:27:08;4.30;99.90
32698;DHT22;19087;51.062;3.754;2024-01-07T12:29:34;4.30;99.90
32698;DHT22;19087;51.062;3.754;2024-01-07T12:31:59;4.30;99.90
32698;DHT22;19087;51.062;3.754;2024-01-07T12:34:38;4.40;99.90
32698;DHT22;19087;51.062;3.754;2024-01-07T12:37:13;4.50;99.90
32698;DHT22;19087;51.062;3.754;2024-01-07T12:39:38;4.50;99.90
32698;DHT22;19087;51.062;3.754;2024-01-07T12:42:04;4.60;99.90
32698;DHT22;19087;51.062;3.754;2024-01-07T12:44:30;4.70;99.90
32698;DHT22;19087;51.062;3.754;2024-01-07T12:46:56;4.80;99.90
32698;DHT22;19087;51.062;3.754;2024-01-07T12:49:21;4.90;99.90
32698;DHT22;19087;51.062;3.754;2024-01-07T12:51:48;4.80;99.90
32698;DHT22;19087;51.062;3.754;2024-01-07T12:54:14;4.80;99.90
32698;DHT22;19087;51.062;3.754;2024-01-07T12:56:41;4.70;99.90
32698;DHT22;19087;51.062;3.754;2024-01-07T12:59:08;4.60;99.90
32698;DHT22;19087;51.062;3.754;2024-01-07T13:01:34;4.50;99.90
32698;DHT22;19087;51.062;3.754;2024-01-07T13:04:02;4.40;99.90
32698;DHT22;19087;51.062;3.754;2024-01-07T13:06:33;4.20;99.90
32698;DHT22;19087;51.062;3.754;2024-01-07T13:08:59;4.30;99.90
32698;DHT22;19087;51.062;3.754;2024-01-07T13:11:25;4.30;99.90
32698;DHT22;19087;51.062;3.754;2024-01-07T13:13:51;4.40;99.90
32698;DHT22;19087;51.062;3.754;2024-01-07T13:16:16;4.50;99.90
32698;DHT22;19087;51.062;3.754;2024-01-07T13:18:43;4.70;99.90
32698;DHT22;19087;51.062;3.754;2024-01-07T13:21:09;4.50;99.90
32698;DHT22;19087;51.062;3.754;2024-01-07T13:23:36;4.40;99.90
32698;DHT22;19087;51.062;3.754;2024-01-07T13:26:05;4.30;99.90
32698;DHT22;19087;51.062;3.754;2024-01-07T13:28:32;4.40;99.90
32698;DHT22;19087;51.062;3.754;2024-01-07T13:31:10;4.40;99.90
32698;DHT22;19087;51.062;3.754;2024-01-07T13:33:41;4.30;99.90
32698;DHT22;19087;51.062;3.754;2024-01-07T13:36:07;4.30;99.90
32698;DHT22;19087;51.062;3.754;2024-01-07T13:38:36;4.30;99.90
32698;DHT22;19087;51.062;3.754;2024-01-07T13:41:09;4.30;99.90
32698;DHT22;19087;51.062;3.754;2024-01-07T13:43:36;4.30;99.90
32698;DHT22;19087;51.062;3.754;2024-01-07T13:46:13;4.30;99.90
32698;DHT22;19087;51.062;3.754;2024-01-07T13:48:42;4.30;99.90
32698;DHT22;19087;51.062;3.754;2024-01-07T13:51:09;4.30;99.90
32698;DHT22;19087;51.062;3.754;2024-01-07T13:53:35;4.30;99.90
32698;DHT22;19087;51.062;3.754;2024-01-07T13:56:05;4.30;99.90
32698;DHT22;19087;51.062;3.754;2024-01-07T13:58:33;4.20;99.90
32698;DHT22;19087;51.062;3.754;2024-01-07T14:00:59;4.20;99.90
32698;DHT22;19087;51.062;3.754;2024-01-07T14:03:25;4.10;99.90
32698;DHT22;19087;51.062;3.754;2024-01-07T14:05:51;4.10;99.90
32698;DHT22;19087;51.062;3.754;2024-01-07T14:08:18;4.20;99.90
32698;DHT22;19087;51.062;3.754;2024-01-07T14:10:44;4.20;99.90
32698;DHT22;19087;51.062;3.754;2024-01-07T14:13:12;4.10;99.90
32698;DHT22;19087;51.062;3.754;2024-01-07T14:15:40;4.10;99.90
32698;DHT22;19087;51.062;3.754;2024-01-07T14:18:06;4.00;99.90
32698;DHT22;19087;51.062;3.754;2024-01-07T14:20:32;4.00;99.90
32698;DHT22;19087;51.062;3.754;2024-01-07T14:23:04;4.00;99.90
32698;DHT22;19087;51.062;3.754;2024-01-07T14:25:31;3.80;99.90
32698;DHT22;19087;51.062;3.754;2024-01-07T14:27:58;3.90;99.90
32698;DHT22;19087;51.062;3.754;2024-01-07T14:30:25;3.80;99.90
32698;DHT22;19087;51.062;3.754;2024-01-07T14:32:51;3.80;99.90
32698;DHT22;19087;51.062;3.754;2024-01-07T14:35:18;3.70;99.90
32698;DHT22;19087;51.062;3.754;2024-01-07T14:37:46;3.70;99.90
32698;DHT22;19087;51.062;3.754;2024-01-07T14:40:12;3.80;99.90
32698;DHT22;19087;51.062;3.754;2024-01-07T14:42:38;3.80;99.90
32698;DHT22;19087;51.062;3.754;2024-01-07T14:45:10;3.90;99.90
32698;DHT22;19087;51.062;3.754;2024-01-07T14:47:37;4.00;99.90
32698;DHT22;19087;51.062;3.754;2024-01-07T14:50:04;4.00;99.90
32698;DHT22;19087;51.062;3.754;2024-01-07T14:52:33;4.10;99.90
32698;DHT22;19087;51.062;3.754;2024-01-07T14:55:00;4.20;99.90
32698;DHT22;19087;51.062;3.754;2024-01-07T14:57:28;4.10;99.90
32698;DHT22;19087;51.062;3.754;2024-01-07T14:59:55;4.10;99.90
32698;DHT22;19087;51.062;3.754;2024-01-07T15:02:20;4.10;99.90
32698;DHT22;19087;51.062;3.754;2024-01-07T15:04:47;4.10;99.90
32698;DHT22;19087;51.062;3.754;2024-01-07T15:07:14;3.90;99.90
32698;DHT22;19087;51.062;3.754;2024-01-07T15:09:42;3.90;99.90
32698;DHT22;19087;51.062;3.754;2024-01-07T15:12:08;3.90;99.90
32698;DHT22;19087;51.062;3.754;2024-01-07T15:14:34;3.90;99.90
32698;DHT22;19087;51.062;3.754;2024-01-07T15:17:00;3.80;99.90
32698;DHT22;19087;51.062;3.754;2024-01-07T15:19:27;3.80;99.90
32698;DHT22;19087;51.062;3.754;2024-01-07T15:21:55;3.80;99.90
32698;DHT22;19087;51.062;3.754;2024-01-07T15:24:21;3.70;99.90
32698;DHT22;19087;51.062;3.754;2024-01-07T15:26:47;3.80;99.90
32698;DHT22;19087;51.062;3.754;2024-01-07T15:29:13;3.70;99.90
32698;DHT22;19087;51.062;3.754;2024-01-07T15:31:39;3.70;99.90
32698;DHT22;19087;51.062;3.754;2024-01-07T15:34:05;3.80;99.90
32698;DHT22;19087;51.062;3.754;2024-01-07T15:36:34;3.80;99.90
32698;DHT22;19087;51.062;3.754;2024-01-07T15:39:01;3.80;99.90
32698;DHT22;19087;51.062;3.754;2024-01-07T15:41:29;3.80;99.90
32698;DHT22;19087;51.062;3.754;2024-01-07T15:43:56;3.70;99.90
32698;DHT22;19087;51.062;3.754;2024-01-07T15:46:22;3.70;99.90
32698;DHT22;19087;51.062;3.754;2024-01-07T15:48:51;3.50;99.90